Gagetown, MI

12:38 PM EDT on September 03, 2015 (GMT -0400)
APRSWXNET | | Change Station
CLOSE
Current Station
Personal Weather Station
Location: Caro, MI
Elevation: 787 ft
Nearby Weather Stations

Elev 787 ft 43.51 °N, 83.39 °W | Updated 59 minutes ago

Overcast
Overcast
79 °F
Feels Like 82 °F
N
0
Wind Variable Wind from WSW
Gusts 0.0 mph

Today
High -- | Low -- °F
--% Chance of Precip.
Yesterday
High -- | Low -- °F
Precip. -- in
6:58 AM 8:05 PM
Waning Gibbous, 69% visible
Pressure 29.97 in
Visibility 7.0 miles
Clouds Scattered Clouds 2700 ft
Mostly Cloudy 7000 ft
Overcast 10000 ft
Heat Index 82 °F
Dew Point 72 °F
Humidity 79%
Rainfall in
Snow Depth Not available.
UV 2 out of 12
Pollen 9.70 out of 12
Air Quality Not available.
Flu Activity Not available.
METAR KCFS 031633Z AUTO 00000KT 7SM -RA SCT027 BKN070 OVC100 20/19 A2997 RMK AO2 T01950186
Pressure 29.97 in
Visibility 7.0 miles
Clouds Scattered Clouds 2700 ft
Mostly Cloudy 7000 ft
Overcast 10000 ft
Heat Index 82 °F
Dew Point 72 °F
Humidity 79%
Rainfall in
Snow Depth Not available.
UV 2 out of 12
Pollen 9.70 out of 12
Air Quality Not available.
Flu Activity Not available.
METAR KCFS 031633Z AUTO 00000KT 7SM -RA SCT027 BKN070 OVC100 20/19 A2997 RMK AO2 T01950186

10-Day Weather Forecast

×

Almanac

Astronomy

Sep. 03, 2015 Rise Set
Actual Time
Civil Twilight
Nautical Twilight
Astronomical Twilight
Moon
Length of Visible Light
Length of Day
Tomorrow will be .
, % of the Moon is Illuminated

Today's Extremes

State Highs State Lows

Community

WunderPhotos

Upload Photos

1,851,988 photos uploaded!

WunderBlogs® & News

Nearby

Air Quality

  Air Quality AQ Index Pollutant
Not available.

Snow Depth

Station Depth Elevation

Earthquake Activity

City Distance Mag. Time & Date
Minimum magnitude displayed is 2.5.

Coastal Water Temperatures

Place Temperature

Stations

Nearby Weather Stations

Station Location Temp. Windchill Dew Point Humidity Wind Precip. Elev Updated Type